Time;durP1;ratioP1;P1;durP2;ratioP2;P2;SDS_P1;SDS_P2;PMS_P1;PMS_P2;Temp;Humidity;BMP_temperature;BMP_pressure;BME280_temperature;BME280_humidity;BME280_pressure;Samples;Min_cycle;Max_cycle;Signal;HPM_P1;HPM_P2
2021/01/15 00:02:09;;;;;;;;;;;25.10;91.60;;;;;;5028565;28;20522;-83
2021/01/15 00:04:36;;;;;;;;;;;25.10;91.30;;;;;;5028082;28;20023;-81
2021/01/15 00:07:03;;;;;;;;;;;25.20;91.40;;;;;;5028632;28;19941;-82
2021/01/15 00:09:30;;;;;;;;;;;25.30;91.70;;;;;;5029082;28;20283;-82
2021/01/15 00:11:57;;;;;;;;;;;25.40;91.30;;;;;;5028535;28;19920;-82
2021/01/15 00:14:24;;;;;;;;;;;25.40;91.90;;;;;;5035154;28;20017;-82
2021/01/15 00:16:57;;;;;;;;;;;25.50;91.80;;;;;;5032828;28;19920;-87
2021/01/15 00:19:24;;;;;;;;;;;25.50;91.70;;;;;;5018287;28;20435;-83
2021/01/15 00:21:52;;;;;;;;;;;25.50;91.70;;;;;;5028700;28;19916;-83
2021/01/15 00:24:19;;;;;;;;;;;25.60;91.60;;;;;;5028082;28;19981;-82
2021/01/15 00:26:49;;;;;;;;;;;25.50;92.20;;;;;;5026034;28;19917;-82
2021/01/15 00:29:17;;;;;;;;;;;25.50;91.70;;;;;;5026470;28;19972;-81
2021/01/15 00:31:46;;;;;;;;;;;25.50;91.90;;;;;;5027762;28;20370;-82
2021/01/15 00:34:14;;;;;;;;;;;25.60;92.10;;;;;;5027121;28;20012;-81
2021/01/15 00:36:44;;;;;;;;;;;25.60;91.80;;;;;;5027387;28;19958;-83
2021/01/15 00:39:13;;;;;;;;;;;25.70;92.20;;;;;;5028717;28;19914;-82
2021/01/15 00:41:44;;;;;;;;;;;25.80;91.60;;;;;;5028878;28;19952;-85
2021/01/15 00:44:11;;;;;;;;;;;25.80;91.60;;;;;;5027219;28;20410;-84
2021/01/15 00:46:47;;;;;;;;;;;25.80;91.80;;;;;;5033823;28;19913;-83
2021/01/15 00:49:18;;;;;;;;;;;26.00;91.60;;;;;;5043989;28;19918;-84
2021/01/15 00:51:51;;;;;;;;;;;26.30;91.30;;;;;;5028793;28;20019;-84
2021/01/15 00:54:17;;;;;;;;;;;26.40;91.00;;;;;;5027782;28;19970;-84
2021/01/15 00:57:04;;;;;;;;;;;26.80;90.50;;;;;;5028143;28;19913;-83
2021/01/15 00:59:31;;;;;;;;;;;27.20;90.10;;;;;;5026603;28;19989;-85
2021/01/15 01:02:00;;;;;;;;;;;27.20;89.30;;;;;;5031445;28;19944;-84
2021/01/15 01:04:42;;;;;;;;;;;27.20;89.30;;;;;;5029869;28;20291;-83
2021/01/15 01:07:09;;;;;;;;;;;27.10;89.40;;;;;;5024434;28;20278;-82
2021/01/15 01:09:41;;;;;;;;;;;26.90;89.70;;;;;;5036138;27;19920;-82
2021/01/15 01:12:10;;;;;;;;;;;27.00;89.70;;;;;;5036508;28;19913;-84
2021/01/15 01:14:37;;;;;;;;;;;27.10;89.40;;;;;;5033244;28;20208;-81
2021/01/15 01:17:13;;;;;;;;;;;27.10;89.90;;;;;;5033283;28;19982;-82
2021/01/15 01:19:49;;;;;;;;;;;27.00;88.50;;;;;;5065540;27;19936;-83
2021/01/15 01:22:18;;;;;;;;;;;27.20;87.90;;;;;;5031870;28;19917;-79
2021/01/15 01:24:45;;;;;;;;;;;27.20;88.30;;;;;;5033361;28;19909;-79
2021/01/15 01:27:12;;;;;;;;;;;27.70;86.50;;;;;;5051328;28;20359;-80
2021/01/15 01:29:38;;;;;;;;;;;28.20;85.50;;;;;;5047982;28;19909;-82
2021/01/15 01:32:08;;;;;;;;;;;28.50;82.90;;;;;;5034844;28;19940;-83
2021/01/15 01:34:35;;;;;;;;;;;28.30;84.40;;;;;;5040713;27;19929;-81
2021/01/15 01:37:01;;;;;;;;;;;28.40;83.50;;;;;;5042939;27;19917;-83
2021/01/15 01:39:31;;;;;;;;;;;28.50;83.10;;;;;;5031189;28;20310;-84
2021/01/15 01:41:58;;;;;;;;;;;28.30;83.70;;;;;;5032934;28;19978;-80
2021/01/15 01:44:27;;;;;;;;;;;28.30;82.90;;;;;;5033074;28;19939;-84
2021/01/15 01:46:54;;;;;;;;;;;28.30;84.20;;;;;;5031826;28;19923;-81
2021/01/15 01:49:27;;;;;;;;;;;28.50;83.80;;;;;;5031493;28;19909;-81
2021/01/15 01:51:57;;;;;;;;;;;28.40;83.20;;;;;;5047450;27;19920;-83
2021/01/15 01:54:24;;;;;;;;;;;28.10;84.50;;;;;;5049906;28;19933;-82
2021/01/15 01:56:50;;;;;;;;;;;27.90;85.40;;;;;;5048061;28;19921;-83
2021/01/15 01:59:17;;;;;;;;;;;27.70;85.20;;;;;;5041455;27;19968;-83
2021/01/15 02:01:44;;;;;;;;;;;27.50;85.70;;;;;;5047039;28;19909;-82
2021/01/15 02:04:13;;;;;;;;;;;27.10;87.10;;;;;;5032339;28;19925;-83
2021/01/15 02:06:41;;;;;;;;;;;26.90;89.00;;;;;;5030283;27;19953;-83
2021/01/15 02:09:13;;;;;;;;;;;26.70;89.20;;;;;;5029706;28;19923;-82
2021/01/15 02:11:52;;;;;;;;;;;26.50;90.10;;;;;;5029705;28;19909;-83
2021/01/15 02:14:20;;;;;;;;;;;26.60;90.00;;;;;;5028629;28;19929;-82
2021/01/15 02:16:52;;;;;;;;;;;26.50;90.00;;;;;;5027877;28;19945;-84
2021/01/15 02:19:47;;;;;;;;;;;26.50;90.00;;;;;;5028988;28;19917;-82
2021/01/15 02:22:31;;;;;;;;;;;26.70;90.10;;;;;;5030153;27;20358;-82
2021/01/15 02:24:58;;;;;;;;;;;26.80;90.00;;;;;;5028968;28;20791;-82
2021/01/15 02:27:43;;;;;;;;;;;26.50;90.00;;;;;;5031130;28;19990;-82
2021/01/15 02:30:28;;;;;;;;;;;26.30;90.50;;;;;;5046147;28;20397;-83
2021/01/15 02:33:01;;;;;;;;;;;26.10;90.90;;;;;;5027535;28;19921;-83
2021/01/15 02:35:46;;;;;;;;;;;26.20;91.00;;;;;;5024692;28;19918;-84
2021/01/15 02:38:28;;;;;;;;;;;26.20;91.20;;;;;;5048560;28;19917;-82
2021/01/15 02:41:06;;;;;;;;;;;26.30;90.80;;;;;;5071492;27;19913;-84
2021/01/15 02:43:34;;;;;;;;;;;26.30;91.10;;;;;;5031948;28;19945;-83
2021/01/15 02:46:02;;;;;;;;;;;26.40;90.90;;;;;;5030742;28;20386;-84
2021/01/15 02:48:35;;;;;;;;;;;26.50;91.00;;;;;;5026109;28;19921;-83
2021/01/15 02:51:03;;;;;;;;;;;26.60;90.90;;;;;;5027709;28;20355;-84
2021/01/15 02:53:33;;;;;;;;;;;26.70;90.90;;;;;;5030330;28;19921;-83
2021/01/15 02:56:00;;;;;;;;;;;26.70;90.50;;;;;;5029956;28;19913;-83
2021/01/15 02:58:31;;;;;;;;;;;26.70;90.90;;;;;;5037156;28;19984;-85
2021/01/15 03:01:01;;;;;;;;;;;26.60;90.90;;;;;;5045159;28;19974;-85
2021/01/15 03:03:37;;;;;;;;;;;26.40;91.20;;;;;;5052139;27;20291;-83
2021/01/15 03:06:10;;;;;;;;;;;26.30;91.50;;;;;;5035390;28;20267;-86
2021/01/15 03:08:37;;;;;;;;;;;26.00;91.80;;;;;;5052622;28;19943;-84
2021/01/15 03:11:04;;;;;;;;;;;26.00;91.70;;;;;;5052262;28;19909;-86
2021/01/15 03:13:31;;;;;;;;;;;26.00;92.10;;;;;;5057019;27;19931;-79
2021/01/15 03:16:03;;;;;;;;;;;26.10;91.50;;;;;;5082870;27;19923;-80
2021/01/15 03:18:31;;;;;;;;;;;26.10;91.10;;;;;;5072748;27;19904;-81
2021/01/15 03:21:01;;;;;;;;;;;26.10;91.60;;;;;;5032763;28;19914;-82
2021/01/15 03:23:28;;;;;;;;;;;25.90;91.60;;;;;;5031768;28;19913;-82
2021/01/15 03:25:56;;;;;;;;;;;25.90;91.80;;;;;;5036072;28;19917;-82
2021/01/15 03:28:23;;;;;;;;;;;26.10;91.60;;;;;;5036558;28;19917;-80
2021/01/15 03:30:49;;;;;;;;;;;26.10;91.20;;;;;;5107958;27;20549;-83
2021/01/15 03:33:16;;;;;;;;;;;26.10;91.30;;;;;;5030824;28;20019;-81
2021/01/15 03:35:43;;;;;;;;;;;26.00;91.30;;;;;;5038661;28;19913;-82
2021/01/15 03:38:11;;;;;;;;;;;25.90;91.60;;;;;;5049189;28;19941;-82
2021/01/15 03:40:39;;;;;;;;;;;25.70;91.90;;;;;;5051533;28;19909;-83
2021/01/15 03:43:31;;;;;;;;;;;25.60;92.10;;;;;;5032628;28;20326;-83
2021/01/15 03:45:57;;;;;;;;;;;25.70;92.30;;;;;;5031687;28;19954;-85
2021/01/15 03:48:41;;;;;;;;;;;25.70;92.40;;;;;;5043919;28;19916;-90
2021/01/15 03:51:10;;;;;;;;;;;25.70;92.20;;;;;;5053518;28;19921;-89
2021/01/15 03:53:55;;;;;;;;;;;25.70;92.00;;;;;;5068257;28;19917;-92
2021/01/15 03:56:34;;;;;;;;;;;25.80;92.10;;;;;;5044419;28;19919;-85
2021/01/15 03:59:04;;;;;;;;;;;25.80;92.30;;;;;;5063060;27;19913;-86
2021/01/15 04:01:33;;;;;;;;;;;25.80;91.40;;;;;;5059701;27;19914;-83
2021/01/15 04:04:00;;;;;;;;;;;25.80;91.40;;;;;;5027502;28;19928;-85
2021/01/15 04:06:30;;;;;;;;;;;25.70;91.60;;;;;;5047365;28;19934;-87
2021/01/15 04:08:59;;;;;;;;;;;25.70;91.80;;;;;;5062222;27;19936;-88
2021/01/15 04:11:29;;;;;;;;;;;25.80;91.80;;;;;;5038057;28;19954;-86
2021/01/15 04:13:59;;;;;;;;;;;25.90;91.90;;;;;;5049305;28;19918;-91
2021/01/15 04:16:25;;;;;;;;;;;26.00;91.80;;;;;;5040364;28;20363;-88
2021/01/15 04:18:52;;;;;;;;;;;26.00;91.80;;;;;;5035159;28;19983;-85
2021/01/15 04:21:19;;;;;;;;;;;26.10;91.60;;;;;;5031884;28;19916;-87
2021/01/15 04:23:48;;;;;;;;;;;26.00;91.80;;;;;;5036224;28;19978;-88
2021/01/15 04:26:36;;;;;;;;;;;25.80;91.70;;;;;;5031957;28;19966;-88
2021/01/15 04:29:12;;;;;;;;;;;25.70;92.00;;;;;;5044019;27;19914;-84
2021/01/15 04:31:48;;;;;;;;;;;25.50;92.00;;;;;;5032915;28;19958;-89
2021/01/15 04:34:30;;;;;;;;;;;25.50;91.90;;;;;;5038226;28;19921;-86
2021/01/15 04:37:08;;;;;;;;;;;25.60;92.30;;;;;;5065895;28;19913;-87
2021/01/15 04:42:36;;;;;;;;;;;25.90;90.80;;;;;;5041106;28;19931;-88
2021/01/15 04:51:10;;;;;;;;;;;26.10;90.80;;;;;;5052320;28;20416;-89
2021/01/15 04:53:54;;;;;;;;;;;26.10;91.00;;;;;;5038391;28;19921;-86
2021/01/15 04:57:09;;;;;;;;;;;26.20;90.70;;;;;;5052324;28;19897;-89
2021/01/15 05:03:01;;;;;;;;;;;26.10;90.50;;;;;;5004025;28;20431;-89
2021/01/15 05:08:25;;;;;;;;;;;26.20;91.20;;;;;;4921524;29;19915;-85
2021/01/15 05:11:01;;;;;;;;;;;26.30;90.70;;;;;;4929843;28;19924;-86
2021/01/15 05:13:36;;;;;;;;;;;26.20;90.70;;;;;;4972546;28;19919;-85
2021/01/15 05:16:03;;;;;;;;;;;26.00;91.10;;;;;;4999737;28;19921;-86
2021/01/15 05:18:38;;;;;;;;;;;25.80;91.40;;;;;;4982880;28;19984;-86
2021/01/15 05:21:05;;;;;;;;;;;25.60;92.00;;;;;;4982769;28;20272;-84
2021/01/15 05:23:40;;;;;;;;;;;25.90;92.00;;;;;;5009712;28;19914;-89
2021/01/15 05:26:07;;;;;;;;;;;25.90;91.90;;;;;;4997853;28;19921;-86
2021/01/15 05:28:59;;;;;;;;;;;25.80;92.00;;;;;;4995437;28;19910;-87
2021/01/15 05:32:02;;;;;;;;;;;25.90;92.40;;;;;;5001396;28;19935;-86
2021/01/15 05:40:57;;;;;;;;;;;25.50;92.50;;;;;;4973696;28;19911;-89
2021/01/15 05:43:25;;;;;;;;;;;25.40;92.80;;;;;;4993794;28;20048;-89
2021/01/15 05:46:04;;;;;;;;;;;25.50;92.70;;;;;;4995068;28;19910;-87
2021/01/15 05:48:42;;;;;;;;;;;;;;;;;;;;;
2021/01/15 05:54:34;;;;;;;;;;;25.70;92.90;;;;;;5010633;28;20394;-89
2021/01/15 05:57:15;;;;;;;;;;;25.60;93.00;;;;;;4995458;28;19913;-88
2021/01/15 05:59:54;;;;;;;;;;;25.50;93.60;;;;;;4997203;27;19910;-85
2021/01/15 06:05:57;;;;;;;;;;;25.60;94.00;;;;;;5067794;28;19994;-87
2021/01/15 06:08:41;;;;;;;;;;;25.50;94.20;;;;;;5065918;28;19931;-90
2021/01/15 06:11:21;;;;;;;;;;;25.50;94.30;;;;;;5097409;28;21111;-88
2021/01/15 06:14:20;;;;;;;;;;;25.60;94.20;;;;;;5075974;28;19924;-87
2021/01/15 06:17:10;;;;;;;;;;;25.60;94.10;;;;;;5025789;28;19968;-86
2021/01/15 06:19:57;;;;;;;;;;;25.70;94.00;;;;;;4972241;28;19914;-84
2021/01/15 06:22:29;;;;;;;;;;;25.70;93.60;;;;;;4967007;28;19925;-90
2021/01/15 06:25:11;;;;;;;;;;;25.50;94.00;;;;;;4955375;28;19941;-89
2021/01/15 06:28:09;;;;;;;;;;;25.30;94.30;;;;;;5000412;28;19956;-89
2021/01/15 06:43:50;;;;;;;;;;;24.90;95.70;;;;;;4951616;29;19930;-90
2021/01/15 06:46:34;;;;;;;;;;;25.10;95.10;;;;;;4935932;29;19918;-88
2021/01/15 06:49:10;;;;;;;;;;;25.20;94.80;;;;;;4952486;28;19918;-90
2021/01/15 06:51:47;;;;;;;;;;;25.00;94.80;;;;;;4965666;28;19917;-88
2021/01/15 06:54:17;;;;;;;;;;;25.00;94.90;;;;;;5013329;28;19921;-88
2021/01/15 06:57:03;;;;;;;;;;;24.90;94.90;;;;;;5014779;28;20001;-89
2021/01/15 06:59:37;;;;;;;;;;;24.90;95.00;;;;;;5008699;28;19925;-89
2021/01/15 07:02:32;;;;;;;;;;;24.80;95.10;;;;;;5024928;28;19922;-87
2021/01/15 07:05:16;;;;;;;;;;;24.70;95.40;;;;;;5024542;28;19925;-91
2021/01/15 07:08:05;;;;;;;;;;;24.70;95.60;;;;;;5027578;28;19914;-88
2021/01/15 07:10:50;;;;;;;;;;;24.70;96.10;;;;;;5061382;28;19913;-89
2021/01/15 07:13:28;;;;;;;;;;;24.80;95.70;;;;;;5099435;27;19927;-87
2021/01/15 07:16:05;;;;;;;;;;;24.80;95.80;;;;;;5085456;27;19922;-88
2021/01/15 07:18:42;;;;;;;;;;;24.80;95.80;;;;;;5056125;27;19909;-89
2021/01/15 07:21:33;;;;;;;;;;;24.70;95.90;;;;;;5028793;28;20256;-87
2021/01/15 07:24:04;;;;;;;;;;;24.70;96.20;;;;;;5031739;28;19924;-89
2021/01/15 07:26:43;;;;;;;;;;;24.60;96.30;;;;;;5032338;27;20423;-88
2021/01/15 07:29:11;;;;;;;;;;;24.60;96.40;;;;;;5030450;27;19913;-89
2021/01/15 07:31:42;;;;;;;;;;;24.60;96.70;;;;;;5026003;28;20004;-86
2021/01/15 07:34:16;;;;;;;;;;;24.50;96.80;;;;;;5017779;28;19948;-88
2021/01/15 07:36:42;;;;;;;;;;;24.50;96.90;;;;;;5051169;27;19952;-87
2021/01/15 07:42:37;;;;;;;;;;;24.50;97.30;;;;;;4969053;28;20319;-89
2021/01/15 07:45:43;;;;;;;;;;;24.60;97.50;;;;;;4985858;28;20434;-89
2021/01/15 07:48:19;;;;;;;;;;;24.50;97.70;;;;;;4971816;28;19961;-88
2021/01/15 07:51:14;;;;;;;;;;;24.50;97.80;;;;;;5037294;28;20348;-90
2021/01/15 07:53:46;;;;;;;;;;;24.50;98.00;;;;;;5019628;28;19932;-89
2021/01/15 07:59:42;;;;;;;;;;;24.50;98.20;;;;;;4998579;28;19910;-90
2021/01/15 08:02:12;;;;;;;;;;;24.50;98.30;;;;;;5031213;28;19935;-91
2021/01/15 08:04:42;;;;;;;;;;;24.50;98.60;;;;;;5032715;28;19929;-89
2021/01/15 08:07:16;;;;;;;;;;;24.50;98.50;;;;;;5065217;27;19924;-89
2021/01/15 08:10:09;;;;;;;;;;;24.50;98.60;;;;;;5033677;28;20044;-88
2021/01/15 08:12:42;;;;;;;;;;;24.50;98.70;;;;;;5035062;28;19916;-85
2021/01/15 08:15:30;;;;;;;;;;;24.40;98.90;;;;;;5068118;27;19921;-90
2021/01/15 08:17:57;;;;;;;;;;;24.30;99.30;;;;;;5066428;27;20371;-90
2021/01/15 08:20:28;;;;;;;;;;;24.30;99.50;;;;;;5035610;28;19924;-86
2021/01/15 08:22:58;;;;;;;;;;;24.30;99.60;;;;;;5034408;28;20398;-88
2021/01/15 08:25:49;;;;;;;;;;;24.30;99.60;;;;;;5035082;28;20049;-86
2021/01/15 08:28:18;;;;;;;;;;;24.30;99.70;;;;;;5033944;28;20354;-87
2021/01/15 08:31:06;;;;;;;;;;;24.30;99.80;;;;;;5035466;28;19924;-89
2021/01/15 08:33:36;;;;;;;;;;;24.30;99.90;;;;;;5034682;28;20072;-89
2021/01/15 08:36:04;;;;;;;;;;;24.20;99.90;;;;;;5036237;28;20376;-87
2021/01/15 08:38:32;;;;;;;;;;;24.20;99.90;;;;;;5034937;28;20038;-87
2021/01/15 08:41:02;;;;;;;;;;;24.20;99.90;;;;;;5067848;27;19917;-88
2021/01/15 08:43:32;;;;;;;;;;;24.20;99.90;;;;;;5032749;28;19993;-86
2021/01/15 08:46:00;;;;;;;;;;;24.20;99.90;;;;;;5032906;28;20363;-88
2021/01/15 08:48:38;;;;;;;;;;;24.20;99.90;;;;;;5035150;28;20351;-86
2021/01/15 08:51:09;;;;;;;;;;;24.20;99.90;;;;;;5036595;28;19931;-85
2021/01/15 08:53:46;;;;;;;;;;;24.10;99.90;;;;;;5035593;28;20410;-85
2021/01/15 08:56:43;;;;;;;;;;;24.10;99.90;;;;;;5035609;28;19931;-86
2021/01/15 08:59:11;;;;;;;;;;;24.10;99.90;;;;;;5037577;28;20325;-88
2021/01/15 09:01:46;;;;;;;;;;;24.00;99.90;;;;;;5020151;28;19921;-87
2021/01/15 09:04:13;;;;;;;;;;;24.00;99.90;;;;;;5062763;28;19920;-87
2021/01/15 09:06:43;;;;;;;;;;;24.00;99.90;;;;;;5048572;28;19973;-89
2021/01/15 09:09:29;;;;;;;;;;;24.00;99.90;;;;;;5028423;28;20256;-88
2021/01/15 09:12:00;;;;;;;;;;;24.00;99.90;;;;;;5017620;28;20004;-85
2021/01/15 09:14:35;;;;;;;;;;;24.00;99.90;;;;;;5001500;28;19918;-85
2021/01/15 09:17:05;;;;;;;;;;;24.00;99.90;;;;;;5016936;28;19913;-86
2021/01/15 09:19:32;;;;;;;;;;;24.00;99.90;;;;;;5000256;28;20039;-87
2021/01/15 09:22:40;;;;;;;;;;;24.00;99.90;;;;;;5018945;28;19914;-88
2021/01/15 09:25:14;;;;;;;;;;;23.90;99.90;;;;;;5019961;28;19909;-85
2021/01/15 09:27:42;;;;;;;;;;;23.80;99.90;;;;;;5030681;28;20003;-87
2021/01/15 09:30:12;;;;;;;;;;;23.80;99.90;;;;;;5020711;28;19913;-86
2021/01/15 09:33:05;;;;;;;;;;;23.80;99.90;;;;;;5028946;28;19963;-86
2021/01/15 09:35:41;;;;;;;;;;;23.80;99.90;;;;;;5095560;28;19920;-88
2021/01/15 09:38:11;;;;;;;;;;;23.80;99.90;;;;;;5078910;28;19909;-85
2021/01/15 09:40:44;;;;;;;;;;;23.80;99.90;;;;;;5051332;28;20440;-90
2021/01/15 09:43:23;;;;;;;;;;;23.80;99.90;;;;;;5050221;28;19916;-86
2021/01/15 09:45:52;;;;;;;;;;;23.80;99.90;;;;;;5072998;28;19979;-86
2021/01/15 09:48:45;;;;;;;;;;;23.70;99.90;;;;;;5088291;28;19999;-85
2021/01/15 09:51:15;;;;;;;;;;;23.70;99.90;;;;;;5045994;28;19931;-85
2021/01/15 09:53:44;;;;;;;;;;;23.70;99.90;;;;;;5019482;28;19917;-84
2021/01/15 09:56:20;;;;;;;;;;;23.70;99.90;;;;;;5030859;28;20279;-87
2021/01/15 09:58:53;;;;;;;;;;;23.70;99.90;;;;;;5035270;28;19909;-87
2021/01/15 10:01:19;;;;;;;;;;;23.70;99.90;;;;;;5013105;28;19963;-85
2021/01/15 10:03:49;;;;;;;;;;;23.60;99.90;;;;;;5012113;28;19921;-85
2021/01/15 10:06:20;;;;;;;;;;;23.60;99.90;;;;;;5049780;28;19923;-82
2021/01/15 10:08:55;;;;;;;;;;;23.60;99.90;;;;;;5032577;28;19913;-86
2021/01/15 10:11:32;;;;;;;;;;;23.60;99.90;;;;;;5034855;28;19935;-86
2021/01/15 10:14:00;;;;;;;;;;;23.60;99.90;;;;;;5056927;27;20007;-87
2021/01/15 10:16:29;;;;;;;;;;;23.50;99.90;;;;;;5042805;28;19944;-87
2021/01/15 10:18:56;;;;;;;;;;;23.50;99.90;;;;;;5048542;27;19975;-85
2021/01/15 10:21:24;;;;;;;;;;;23.50;99.90;;;;;;5032666;28;19916;-90
2021/01/15 10:23:55;;;;;;;;;;;23.50;99.90;;;;;;5031357;28;19965;-86
2021/01/15 10:26:23;;;;;;;;;;;23.50;99.90;;;;;;5011806;28;19918;-83
2021/01/15 10:28:56;;;;;;;;;;;23.40;99.90;;;;;;5031129;28;20004;-87
2021/01/15 10:31:42;;;;;;;;;;;23.40;99.90;;;;;;5033658;28;19951;-87
2021/01/15 10:34:09;;;;;;;;;;;23.40;99.90;;;;;;5026070;28;19921;-87
2021/01/15 10:36:49;;;;;;;;;;;23.40;99.90;;;;;;5055257;27;19909;-87
2021/01/15 10:39:16;;;;;;;;;;;23.30;99.90;;;;;;5047049;27;20000;-86
2021/01/15 10:41:46;;;;;;;;;;;23.40;99.90;;;;;;5031707;28;19916;-88
2021/01/15 10:44:20;;;;;;;;;;;23.30;99.90;;;;;;5033718;28;20372;-87
2021/01/15 10:46:53;;;;;;;;;;;23.30;99.90;;;;;;5034778;27;20264;-90
2021/01/15 10:49:33;;;;;;;;;;;23.40;99.90;;;;;;5034440;28;19924;-87
2021/01/15 10:52:14;;;;;;;;;;;23.40;99.90;;;;;;5033085;28;19920;-89
2021/01/15 10:54:53;;;;;;;;;;;23.40;99.90;;;;;;5033540;28;19933;-89
2021/01/15 10:57:20;;;;;;;;;;;23.40;99.90;;;;;;5015461;28;19914;-88
2021/01/15 10:59:57;;;;;;;;;;;23.40;99.90;;;;;;5033105;28;19956;-87
2021/01/15 11:02:24;;;;;;;;;;;23.40;99.90;;;;;;5071772;27;20005;-88
2021/01/15 11:04:50;;;;;;;;;;;23.40;99.90;;;;;;5070116;27;19933;-89
2021/01/15 11:07:17;;;;;;;;;;;23.30;99.90;;;;;;5030167;28;19916;-92
2021/01/15 11:09:45;;;;;;;;;;;23.30;99.90;;;;;;5030264;28;19913;-92
2021/01/15 11:12:12;;;;;;;;;;;23.30;99.90;;;;;;5018184;28;19948;-91
2021/01/15 11:14:38;;;;;;;;;;;23.30;99.90;;;;;;5030431;28;19933;-88
2021/01/15 11:17:05;;;;;;;;;;;23.30;99.90;;;;;;5027988;28;20008;-85
2021/01/15 11:19:32;;;;;;;;;;;23.30;99.90;;;;;;5033256;28;19917;-87
2021/01/15 11:21:59;;;;;;;;;;;23.30;98.90;;;;;;5016189;28;19917;-88
2021/01/15 11:24:26;;;;;;;;;;;23.40;98.30;;;;;;5037290;28;20008;-88
2021/01/15 11:26:53;;;;;;;;;;;23.50;97.80;;;;;;5036910;28;19914;-86
2021/01/15 11:29:19;;;;;;;;;;;23.60;97.50;;;;;;5035365;28;19915;-90
2021/01/15 11:31:46;;;;;;;;;;;23.60;97.40;;;;;;5030436;28;19909;-88
2021/01/15 11:34:13;;;;;;;;;;;23.70;98.00;;;;;;5031178;28;19929;-87
2021/01/15 11:36:40;;;;;;;;;;;23.70;98.20;;;;;;5035312;28;19976;-90
2021/01/15 11:39:10;;;;;;;;;;;23.70;99.10;;;;;;5037574;28;19917;-90
2021/01/15 11:41:37;;;;;;;;;;;23.70;99.90;;;;;;5027575;28;20403;-87
2021/01/15 11:44:07;;;;;;;;;;;23.60;99.90;;;;;;5033279;28;19928;-86
2021/01/15 11:46:34;;;;;;;;;;;23.50;99.90;;;;;;5064644;28;19913;-94
2021/01/15 11:49:01;;;;;;;;;;;23.50;99.90;;;;;;5032364;28;20398;-91
2021/01/15 11:51:29;;;;;;;;;;;23.50;99.90;;;;;;5035076;28;19910;-89
2021/01/15 11:53:56;;;;;;;;;;;23.40;99.90;;;;;;5067579;28;20402;-91
2021/01/15 11:56:23;;;;;;;;;;;23.30;99.90;;;;;;5068104;27;19913;-90
2021/01/15 11:58:50;;;;;;;;;;;23.30;99.90;;;;;;5038386;28;20301;-90
2021/01/15 12:01:17;;;;;;;;;;;23.30;99.90;;;;;;5037709;28;19913;-83
2021/01/15 12:03:43;;;;;;;;;;;23.30;99.90;;;;;;5035357;28;19932;-93
2021/01/15 12:06:13;;;;;;;;;;;23.40;99.90;;;;;;5038351;28;21227;-92
2021/01/15 12:08:40;;;;;;;;;;;23.40;99.90;;;;;;5040015;28;20367;-88
2021/01/15 12:11:07;;;;;;;;;;;23.40;98.80;;;;;;5034817;28;20255;-90
2021/01/15 12:13:35;;;;;;;;;;;23.40;96.30;;;;;;5030672;28;19968;-87
2021/01/15 12:16:01;;;;;;;;;;;23.50;92.90;;;;;;5028271;28;20221;-90
2021/01/15 12:18:28;;;;;;;;;;;23.60;92.00;;;;;;5031697;28;19979;-88
2021/01/15 12:20:55;;;;;;;;;;;23.70;86.90;;;;;;5031392;28;19965;-90
2021/01/15 12:23:23;;;;;;;;;;;23.70;84.30;;;;;;5033493;28;19916;-87
2021/01/15 12:25:50;;;;;;;;;;;23.70;60.00;;;;;;5032380;28;20375;-89
2021/01/15 12:28:17;;;;;;;;;;;23.80;54.10;;;;;;5030455;28;19909;-89
2021/01/15 12:30:44;;;;;;;;;;;23.80;50.10;;;;;;5028622;28;19946;-89
2021/01/15 12:33:13;;;;;;;;;;;23.90;46.30;;;;;;5028439;28;19909;-90
2021/01/15 12:35:41;;;;;;;;;;;23.90;46.30;;;;;;5029751;28;19913;-87
2021/01/15 12:38:40;;;;;;;;;;;23.80;45.30;;;;;;5029997;28;19917;-85
2021/01/15 12:41:07;;;;;;;;;;;23.80;43.90;;;;;;5033113;28;20047;-91
2021/01/15 12:43:34;;;;;;;;;;;23.80;44.60;;;;;;5029620;28;19958;-85
2021/01/15 12:46:00;;;;;;;;;;;23.80;44.30;;;;;;5028897;28;19955;-91
2021/01/15 12:48:27;;;;;;;;;;;23.70;46.30;;;;;;5036715;28;20471;-87
2021/01/15 12:50:55;;;;;;;;;;;23.70;43.90;;;;;;5028236;28;20042;-88
2021/01/15 12:53:22;;;;;;;;;;;23.70;42.40;;;;;;5033471;28;19913;-86
2021/01/15 12:55:49;;;;;;;;;;;23.70;45.70;;;;;;5033933;28;19922;-87
2021/01/15 12:58:15;;;;;;;;;;;23.70;43.00;;;;;;5037673;28;20426;-87
2021/01/15 13:00:42;;;;;;;;;;;23.60;43.40;;;;;;5068470;28;19936;-88
2021/01/15 13:03:08;;;;;;;;;;;23.60;43.00;;;;;;5035547;28;19917;-88
2021/01/15 13:05:37;;;;;;;;;;;23.60;42.60;;;;;;5032688;28;19980;-87
2021/01/15 13:08:07;;;;;;;;;;;23.60;42.90;;;;;;5036777;28;19917;-84
2021/01/15 13:10:34;;;;;;;;;;;23.50;42.90;;;;;;5036161;28;19946;-85
2021/01/15 13:13:02;;;;;;;;;;;23.50;43.60;;;;;;5033644;28;19936;-89
2021/01/15 13:15:29;;;;;;;;;;;23.40;42.50;;;;;;5068051;27;19925;-89
2021/01/15 13:17:58;;;;;;;;;;;23.40;42.60;;;;;;5043873;28;19917;-87
2021/01/15 13:20:26;;;;;;;;;;;23.30;42.50;;;;;;5042313;28;19917;-87
2021/01/15 13:22:57;;;;;;;;;;;23.30;42.50;;;;;;5034814;28;19910;-83
2021/01/15 13:25:24;;;;;;;;;;;23.30;42.90;;;;;;5035782;28;19913;-86
2021/01/15 13:27:51;;;;;;;;;;;23.20;42.80;;;;;;5038181;28;20328;-84
2021/01/15 13:30:20;;;;;;;;;;;23.20;42.90;;;;;;5038423;28;20011;-90
2021/01/15 13:32:46;;;;;;;;;;;23.10;43.00;;;;;;5041611;28;19914;-89
2021/01/15 13:35:13;;;;;;;;;;;23.10;44.20;;;;;;5032448;28;19925;-88
2021/01/15 13:37:40;;;;;;;;;;;23.00;43.80;;;;;;5032619;28;19917;-85
2021/01/15 13:40:11;;;;;;;;;;;23.00;43.70;;;;;;5029863;28;19956;-88
2021/01/15 13:42:38;;;;;;;;;;;22.90;43.50;;;;;;5029437;28;19922;-88
2021/01/15 13:45:06;;;;;;;;;;;22.90;43.00;;;;;;5030448;28;19970;-86
2021/01/15 13:47:36;;;;;;;;;;;22.90;42.70;;;;;;5028630;28;20377;-88
2021/01/15 13:50:04;;;;;;;;;;;22.80;42.20;;;;;;5061747;27;19909;-86
2021/01/15 13:52:30;;;;;;;;;;;22.80;43.30;;;;;;5030603;28;19959;-87
2021/01/15 13:54:57;;;;;;;;;;;22.80;42.70;;;;;;5026613;28;19947;-87
2021/01/15 13:57:24;;;;;;;;;;;22.80;43.00;;;;;;5030158;28;19913;-86
2021/01/15 13:59:50;;;;;;;;;;;22.70;43.40;;;;;;5028921;28;19910;-88
2021/01/15 14:02:20;;;;;;;;;;;22.70;43.30;;;;;;5030062;28;19914;-86
2021/01/15 14:04:46;;;;;;;;;;;22.60;44.00;;;;;;5029790;28;20036;-86
2021/01/15 14:07:13;;;;;;;;;;;22.60;44.30;;;;;;5029930;28;19913;-85
2021/01/15 14:09:40;;;;;;;;;;;22.60;41.80;;;;;;5030266;28;19948;-87
2021/01/15 14:12:06;;;;;;;;;;;22.50;41.20;;;;;;5030333;28;19963;-88
2021/01/15 14:14:36;;;;;;;;;;;22.50;41.80;;;;;;5044261;28;20004;-88
2021/01/15 14:17:03;;;;;;;;;;;22.40;40.80;;;;;;5048901;28;20389;-86
2021/01/15 14:19:30;;;;;;;;;;;22.40;41.60;;;;;;5034789;28;19938;-87
2021/01/15 14:21:57;;;;;;;;;;;22.40;41.70;;;;;;5062090;28;19963;-88
2021/01/15 14:24:23;;;;;;;;;;;22.30;42.10;;;;;;5030310;28;19916;-87
2021/01/15 14:26:50;;;;;;;;;;;22.30;41.50;;;;;;5030394;28;19920;-87
2021/01/15 14:29:17;;;;;;;;;;;22.20;41.60;;;;;;5062061;27;20009;-87
2021/01/15 14:31:43;;;;;;;;;;;22.10;40.80;;;;;;5030557;28;19958;-89
2021/01/15 14:34:10;;;;;;;;;;;22.10;40.80;;;;;;5060691;27;19924;-87
2021/01/15 14:36:38;;;;;;;;;;;22.10;41.00;;;;;;5062044;27;20384;-84
2021/01/15 14:39:08;;;;;;;;;;;22.00;41.40;;;;;;5029742;28;19909;-86
2021/01/15 14:41:38;;;;;;;;;;;21.90;41.30;;;;;;5061677;27;20456;-85
2021/01/15 14:44:05;;;;;;;;;;;21.90;40.80;;;;;;5029492;28;19913;-85
2021/01/15 14:46:36;;;;;;;;;;;21.90;40.60;;;;;;5029848;28;19913;-87
2021/01/15 14:49:03;;;;;;;;;;;21.90;40.70;;;;;;5030510;28;20356;-87
2021/01/15 14:51:36;;;;;;;;;;;21.80;39.80;;;;;;5047587;28;19996;-87
2021/01/15 14:54:03;;;;;;;;;;;21.80;39.70;;;;;;5049873;28;19921;-85
2021/01/15 14:56:31;;;;;;;;;;;21.80;39.70;;;;;;5049760;28;19973;-86
2021/01/15 14:59:01;;;;;;;;;;;21.80;39.70;;;;;;5121870;27;19911;-87
2021/01/15 15:01:28;;;;;;;;;;;21.80;38.70;;;;;;5133113;27;19908;-87
2021/01/15 15:03:55;;;;;;;;;;;21.70;38.40;;;;;;5047445;27;19943;-88
2021/01/15 15:06:26;;;;;;;;;;;21.70;38.70;;;;;;5029864;28;19917;-88
2021/01/15 15:08:53;;;;;;;;;;;21.70;39.50;;;;;;5029552;28;19909;-87
2021/01/15 15:11:24;;;;;;;;;;;21.60;39.10;;;;;;5061283;27;19962;-86
2021/01/15 15:13:52;;;;;;;;;;;21.60;38.20;;;;;;5029029;28;19958;-88
2021/01/15 15:16:18;;;;;;;;;;;21.50;38.20;;;;;;5029126;28;19943;-87
2021/01/15 15:18:45;;;;;;;;;;;21.50;39.30;;;;;;5043301;27;19918;-85
2021/01/15 15:21:12;;;;;;;;;;;21.50;38.50;;;;;;5008671;28;19949;-85
2021/01/15 15:23:39;;;;;;;;;;;21.40;39.20;;;;;;5009348;28;19909;-87
2021/01/15 15:26:06;;;;;;;;;;;21.40;38.30;;;;;;5008780;28;19949;-84
2021/01/15 15:28:33;;;;;;;;;;;21.40;38.50;;;;;;5009154;28;19925;-87
2021/01/15 15:31:00;;;;;;;;;;;21.30;37.80;;;;;;5009184;28;19914;-87
2021/01/15 15:33:34;;;;;;;;;;;21.40;38.10;;;;;;5024290;28;20291;-85
2021/01/15 15:36:00;;;;;;;;;;;21.30;37.90;;;;;;5028856;28;20015;-86